sensor_id;sensor_type;location;lat;lon;timestamp;P1;durP1;ratioP1;P2;durP2;ratioP2
73382;SDS011;61600;48.126;11.542;2023-04-24T00:01:16;1.33;;;0.70;;
73382;SDS011;61600;48.126;11.542;2023-04-24T00:03:42;1.42;;;0.60;;
73382;SDS011;61600;48.126;11.542;2023-04-24T00:06:08;2.35;;;0.90;;
73382;SDS011;61600;48.126;11.542;2023-04-24T00:08:34;2.45;;;0.85;;
73382;SDS011;61600;48.126;11.542;2023-04-24T00:11:01;2.30;;;1.10;;
73382;SDS011;61600;48.126;11.542;2023-04-24T00:13:27;1.70;;;0.70;;
73382;SDS011;61600;48.126;11.542;2023-04-24T00:15:54;0.88;;;0.50;;
73382;SDS011;61600;48.126;11.542;2023-04-24T00:18:20;1.33;;;0.70;;
73382;SDS011;61600;48.126;11.542;2023-04-24T00:20:46;2.53;;;0.73;;
73382;SDS011;61600;48.126;11.542;2023-04-24T00:23:12;1.05;;;0.60;;
73382;SDS011;61600;48.126;11.542;2023-04-24T00:25:38;1.02;;;0.68;;
73382;SDS011;61600;48.126;11.542;2023-04-24T00:28:05;1.25;;;0.60;;
73382;SDS011;61600;48.126;11.542;2023-04-24T00:30:31;2.38;;;0.80;;
73382;SDS011;61600;48.126;11.542;2023-04-24T00:32:57;1.75;;;0.40;;
73382;SDS011;61600;48.126;11.542;2023-04-24T00:35:23;0.73;;;0.50;;
73382;SDS011;61600;48.126;11.542;2023-04-24T00:37:49;1.25;;;0.70;;
73382;SDS011;61600;48.126;11.542;2023-04-24T00:40:16;1.10;;;0.60;;
73382;SDS011;61600;48.126;11.542;2023-04-24T00:42:42;1.42;;;0.73;;
73382;SDS011;61600;48.126;11.542;2023-04-24T00:45:08;0.80;;;0.55;;
73382;SDS011;61600;48.126;11.542;2023-04-24T00:47:35;0.98;;;0.60;;
73382;SDS011;61600;48.126;11.542;2023-04-24T00:50:02;0.88;;;0.50;;
73382;SDS011;61600;48.126;11.542;2023-04-24T00:52:28;1.48;;;0.50;;
73382;SDS011;61600;48.126;11.542;2023-04-24T00:54:56;1.80;;;0.50;;
73382;SDS011;61600;48.126;11.542;2023-04-24T00:57:22;0.90;;;0.50;;
73382;SDS011;61600;48.126;11.542;2023-04-24T00:59:48;0.80;;;0.50;;
73382;SDS011;61600;48.126;11.542;2023-04-24T01:02:15;1.55;;;0.50;;
73382;SDS011;61600;48.126;11.542;2023-04-24T01:04:41;0.85;;;0.50;;
73382;SDS011;61600;48.126;11.542;2023-04-24T01:07:08;2.92;;;0.63;;
73382;SDS011;61600;48.126;11.542;2023-04-24T01:09:39;0.68;;;0.60;;
73382;SDS011;61600;48.126;11.542;2023-04-24T01:12:07;1.52;;;0.50;;
73382;SDS011;61600;48.126;11.542;2023-04-24T01:14:33;0.40;;;0.40;;
73382;SDS011;61600;48.126;11.542;2023-04-24T01:16:59;0.50;;;0.40;;
73382;SDS011;61600;48.126;11.542;2023-04-24T01:19:25;0.50;;;0.30;;
73382;SDS011;61600;48.126;11.542;2023-04-24T01:21:52;1.23;;;0.40;;
73382;SDS011;61600;48.126;11.542;2023-04-24T01:24:45;0.68;;;0.40;;
73382;SDS011;61600;48.126;11.542;2023-04-24T01:27:11;0.30;;;0.30;;
73382;SDS011;61600;48.126;11.542;2023-04-24T01:29:37;0.35;;;0.32;;
73382;SDS011;61600;48.126;11.542;2023-04-24T01:32:03;1.55;;;0.63;;
73382;SDS011;61600;48.126;11.542;2023-04-24T01:34:30;1.17;;;0.32;;
73382;SDS011;61600;48.126;11.542;2023-04-24T01:36:56;0.88;;;0.50;;
73382;SDS011;61600;48.126;11.542;2023-04-24T01:39:22;2.42;;;0.57;;
73382;SDS011;61600;48.126;11.542;2023-04-24T01:41:51;0.52;;;0.30;;
73382;SDS011;61600;48.126;11.542;2023-04-24T01:44:18;0.98;;;0.40;;
73382;SDS011;61600;48.126;11.542;2023-04-24T01:46:44;0.40;;;0.40;;
73382;SDS011;61600;48.126;11.542;2023-04-24T01:49:10;0.73;;;0.40;;
73382;SDS011;61600;48.126;11.542;2023-04-24T01:51:36;1.00;;;0.45;;
73382;SDS011;61600;48.126;11.542;2023-04-24T01:54:02;0.63;;;0.40;;
73382;SDS011;61600;48.126;11.542;2023-04-24T01:56:33;0.55;;;0.40;;
73382;SDS011;61600;48.126;11.542;2023-04-24T01:59:01;0.50;;;0.30;;
73382;SDS011;61600;48.126;11.542;2023-04-24T02:01:29;0.77;;;0.43;;
73382;SDS011;61600;48.126;11.542;2023-04-24T02:04:00;2.55;;;1.08;;
73382;SDS011;61600;48.126;11.542;2023-04-24T02:06:25;1.40;;;0.40;;
73382;SDS011;61600;48.126;11.542;2023-04-24T02:08:51;1.17;;;0.50;;
73382;SDS011;61600;48.126;11.542;2023-04-24T02:11:17;1.00;;;0.50;;
73382;SDS011;61600;48.126;11.542;2023-04-24T02:13:44;0.77;;;0.40;;
73382;SDS011;61600;48.126;11.542;2023-04-24T02:16:09;1.08;;;0.45;;
73382;SDS011;61600;48.126;11.542;2023-04-24T02:18:35;2.38;;;0.75;;
73382;SDS011;61600;48.126;11.542;2023-04-24T02:21:01;1.05;;;0.50;;
73382;SDS011;61600;48.126;11.542;2023-04-24T02:23:27;1.23;;;0.70;;
73382;SDS011;61600;48.126;11.542;2023-04-24T02:25:52;1.50;;;0.50;;
73382;SDS011;61600;48.126;11.542;2023-04-24T02:28:18;0.40;;;0.30;;
73382;SDS011;61600;48.126;11.542;2023-04-24T02:30:44;0.40;;;0.40;;
73382;SDS011;61600;48.126;11.542;2023-04-24T02:33:11;2.33;;;0.68;;
73382;SDS011;61600;48.126;11.542;2023-04-24T02:35:37;2.30;;;0.50;;
73382;SDS011;61600;48.126;11.542;2023-04-24T02:38:03;0.88;;;0.50;;
73382;SDS011;61600;48.126;11.542;2023-04-24T02:40:29;0.95;;;0.50;;
73382;SDS011;61600;48.126;11.542;2023-04-24T02:42:55;0.63;;;0.40;;
73382;SDS011;61600;48.126;11.542;2023-04-24T02:45:21;2.15;;;0.30;;
73382;SDS011;61600;48.126;11.542;2023-04-24T02:47:46;0.82;;;0.40;;
73382;SDS011;61600;48.126;11.542;2023-04-24T02:50:12;1.27;;;0.43;;
73382;SDS011;61600;48.126;11.542;2023-04-24T02:52:38;0.28;;;0.28;;
73382;SDS011;61600;48.126;11.542;2023-04-24T02:55:04;0.93;;;0.50;;
73382;SDS011;61600;48.126;11.542;2023-04-24T02:57:30;0.57;;;0.45;;
73382;SDS011;61600;48.126;11.542;2023-04-24T02:59:56;1.17;;;0.38;;
73382;SDS011;61600;48.126;11.542;2023-04-24T03:02:21;1.00;;;0.40;;
73382;SDS011;61600;48.126;11.542;2023-04-24T03:04:47;0.65;;;0.40;;
73382;SDS011;61600;48.126;11.542;2023-04-24T03:07:13;0.65;;;0.30;;
73382;SDS011;61600;48.126;11.542;2023-04-24T03:09:40;0.38;;;0.38;;
73382;SDS011;61600;48.126;11.542;2023-04-24T03:12:06;1.17;;;0.40;;
73382;SDS011;61600;48.126;11.542;2023-04-24T03:14:32;0.90;;;0.50;;
73382;SDS011;61600;48.126;11.542;2023-04-24T03:16:57;0.75;;;0.30;;
73382;SDS011;61600;48.126;11.542;2023-04-24T03:19:23;0.32;;;0.25;;
73382;SDS011;61600;48.126;11.542;2023-04-24T03:21:49;0.63;;;0.50;;
73382;SDS011;61600;48.126;11.542;2023-04-24T03:24:15;1.00;;;0.40;;
73382;SDS011;61600;48.126;11.542;2023-04-24T03:26:41;1.77;;;0.57;;
73382;SDS011;61600;48.126;11.542;2023-04-24T03:29:07;0.77;;;0.40;;
73382;SDS011;61600;48.126;11.542;2023-04-24T03:31:32;0.40;;;0.30;;
73382;SDS011;61600;48.126;11.542;2023-04-24T03:33:58;0.95;;;0.40;;
73382;SDS011;61600;48.126;11.542;2023-04-24T03:36:24;0.28;;;0.17;;
73382;SDS011;61600;48.126;11.542;2023-04-24T03:38:49;0.75;;;0.30;;
73382;SDS011;61600;48.126;11.542;2023-04-24T03:41:15;0.88;;;0.45;;
73382;SDS011;61600;48.126;11.542;2023-04-24T03:43:40;0.60;;;0.40;;
73382;SDS011;61600;48.126;11.542;2023-04-24T03:46:06;1.10;;;0.50;;
73382;SDS011;61600;48.126;11.542;2023-04-24T03:48:34;1.35;;;0.50;;
73382;SDS011;61600;48.126;11.542;2023-04-24T03:51:00;0.65;;;0.47;;
73382;SDS011;61600;48.126;11.542;2023-04-24T03:53:26;2.78;;;0.60;;
73382;SDS011;61600;48.126;11.542;2023-04-24T03:55:52;1.83;;;0.50;;
73382;SDS011;61600;48.126;11.542;2023-04-24T03:58:18;1.50;;;0.57;;
73382;SDS011;61600;48.126;11.542;2023-04-24T04:00:44;1.00;;;0.47;;
73382;SDS011;61600;48.126;11.542;2023-04-24T04:03:11;0.98;;;0.40;;
73382;SDS011;61600;48.126;11.542;2023-04-24T04:08:04;0.88;;;0.60;;
73382;SDS011;61600;48.126;11.542;2023-04-24T04:10:30;4.43;;;0.68;;
73382;SDS011;61600;48.126;11.542;2023-04-24T04:12:56;0.90;;;0.50;;
73382;SDS011;61600;48.126;11.542;2023-04-24T04:15:21;1.40;;;0.50;;
73382;SDS011;61600;48.126;11.542;2023-04-24T04:17:47;2.10;;;0.60;;
73382;SDS011;61600;48.126;11.542;2023-04-24T04:20:13;0.88;;;0.60;;
73382;SDS011;61600;48.126;11.542;2023-04-24T04:22:39;1.80;;;1.00;;
73382;SDS011;61600;48.126;11.542;2023-04-24T04:25:05;2.78;;;0.60;;
73382;SDS011;61600;48.126;11.542;2023-04-24T04:27:32;0.85;;;0.52;;
73382;SDS011;61600;48.126;11.542;2023-04-24T04:30:00;0.57;;;0.40;;
73382;SDS011;61600;48.126;11.542;2023-04-24T04:32:33;0.70;;;0.40;;
73382;SDS011;61600;48.126;11.542;2023-04-24T04:34:59;1.05;;;0.60;;
73382;SDS011;61600;48.126;11.542;2023-04-24T04:37:29;3.00;;;0.55;;
73382;SDS011;61600;48.126;11.542;2023-04-24T04:39:55;1.98;;;0.77;;
73382;SDS011;61600;48.126;11.542;2023-04-24T04:42:21;2.30;;;0.60;;
73382;SDS011;61600;48.126;11.542;2023-04-24T04:44:47;2.67;;;0.68;;
73382;SDS011;61600;48.126;11.542;2023-04-24T04:47:12;0.98;;;0.57;;
73382;SDS011;61600;48.126;11.542;2023-04-24T04:49:38;2.25;;;0.85;;
73382;SDS011;61600;48.126;11.542;2023-04-24T04:52:04;1.95;;;0.50;;
73382;SDS011;61600;48.126;11.542;2023-04-24T04:54:30;0.80;;;0.50;;
73382;SDS011;61600;48.126;11.542;2023-04-24T04:56:56;1.17;;;0.52;;
73382;SDS011;61600;48.126;11.542;2023-04-24T04:59:22;2.67;;;1.00;;
73382;SDS011;61600;48.126;11.542;2023-04-24T05:01:48;1.30;;;0.45;;
73382;SDS011;61600;48.126;11.542;2023-04-24T05:04:14;3.63;;;0.55;;
73382;SDS011;61600;48.126;11.542;2023-04-24T05:06:40;2.00;;;0.82;;
73382;SDS011;61600;48.126;11.542;2023-04-24T05:09:06;0.70;;;0.45;;
73382;SDS011;61600;48.126;11.542;2023-04-24T05:11:32;0.70;;;0.43;;
73382;SDS011;61600;48.126;11.542;2023-04-24T05:13:58;1.15;;;0.60;;
73382;SDS011;61600;48.126;11.542;2023-04-24T05:16:24;0.45;;;0.20;;
73382;SDS011;61600;48.126;11.542;2023-04-24T05:18:51;1.98;;;0.68;;
73382;SDS011;61600;48.126;11.542;2023-04-24T05:21:16;1.15;;;0.55;;
73382;SDS011;61600;48.126;11.542;2023-04-24T05:23:42;0.95;;;0.50;;
73382;SDS011;61600;48.126;11.542;2023-04-24T05:26:08;1.92;;;0.55;;
73382;SDS011;61600;48.126;11.542;2023-04-24T05:28:34;1.77;;;0.50;;
73382;SDS011;61600;48.126;11.542;2023-04-24T05:31:02;1.08;;;0.60;;
73382;SDS011;61600;48.126;11.542;2023-04-24T05:33:28;0.95;;;0.43;;
73382;SDS011;61600;48.126;11.542;2023-04-24T05:35:54;0.70;;;0.40;;
73382;SDS011;61600;48.126;11.542;2023-04-24T05:38:20;1.52;;;0.50;;
73382;SDS011;61600;48.126;11.542;2023-04-24T05:40:46;1.23;;;0.40;;
73382;SDS011;61600;48.126;11.542;2023-04-24T05:43:12;1.10;;;0.40;;
73382;SDS011;61600;48.126;11.542;2023-04-24T05:45:38;0.20;;;0.20;;
73382;SDS011;61600;48.126;11.542;2023-04-24T05:48:04;0.65;;;0.40;;
73382;SDS011;61600;48.126;11.542;2023-04-24T05:50:31;0.57;;;0.10;;
73382;SDS011;61600;48.126;11.542;2023-04-24T05:52:57;0.85;;;0.50;;
73382;SDS011;61600;48.126;11.542;2023-04-24T05:55:27;1.50;;;0.40;;
73382;SDS011;61600;48.126;11.542;2023-04-24T05:57:53;1.25;;;0.68;;
73382;SDS011;61600;48.126;11.542;2023-04-24T06:00:19;0.95;;;0.60;;
73382;SDS011;61600;48.126;11.542;2023-04-24T06:02:45;1.65;;;0.68;;
73382;SDS011;61600;48.126;11.542;2023-04-24T06:05:11;1.25;;;0.50;;
73382;SDS011;61600;48.126;11.542;2023-04-24T06:07:37;1.60;;;0.50;;
73382;SDS011;61600;48.126;11.542;2023-04-24T06:10:03;0.77;;;0.50;;
73382;SDS011;61600;48.126;11.542;2023-04-24T06:12:29;0.50;;;0.40;;
73382;SDS011;61600;48.126;11.542;2023-04-24T06:14:55;1.00;;;0.38;;
73382;SDS011;61600;48.126;11.542;2023-04-24T06:17:21;1.00;;;0.40;;
73382;SDS011;61600;48.126;11.542;2023-04-24T06:19:47;0.55;;;0.30;;
73382;SDS011;61600;48.126;11.542;2023-04-24T06:22:13;0.85;;;0.30;;
73382;SDS011;61600;48.126;11.542;2023-04-24T06:24:41;0.47;;;0.32;;
73382;SDS011;61600;48.126;11.542;2023-04-24T06:27:07;1.52;;;0.38;;
73382;SDS011;61600;48.126;11.542;2023-04-24T06:29:33;0.63;;;0.38;;
73382;SDS011;61600;48.126;11.542;2023-04-24T06:31:59;0.82;;;0.43;;
73382;SDS011;61600;48.126;11.542;2023-04-24T06:34:25;0.50;;;0.30;;
73382;SDS011;61600;48.126;11.542;2023-04-24T06:36:51;0.60;;;0.43;;
73382;SDS011;61600;48.126;11.542;2023-04-24T06:39:17;1.20;;;0.50;;
73382;SDS011;61600;48.126;11.542;2023-04-24T06:41:43;3.70;;;0.40;;
73382;SDS011;61600;48.126;11.542;2023-04-24T06:44:09;0.52;;;0.17;;
73382;SDS011;61600;48.126;11.542;2023-04-24T06:46:34;0.60;;;0.25;;
73382;SDS011;61600;48.126;11.542;2023-04-24T06:49:00;0.95;;;0.30;;
73382;SDS011;61600;48.126;11.542;2023-04-24T06:51:26;1.30;;;0.35;;
73382;SDS011;61600;48.126;11.542;2023-04-24T06:53:53;0.90;;;0.40;;
73382;SDS011;61600;48.126;11.542;2023-04-24T06:56:19;0.47;;;0.40;;
73382;SDS011;61600;48.126;11.542;2023-04-24T06:58:45;1.30;;;0.55;;
73382;SDS011;61600;48.126;11.542;2023-04-24T07:01:12;0.40;;;0.30;;
73382;SDS011;61600;48.126;11.542;2023-04-24T07:03:37;0.45;;;0.30;;
73382;SDS011;61600;48.126;11.542;2023-04-24T07:06:04;0.40;;;0.25;;
73382;SDS011;61600;48.126;11.542;2023-04-24T07:10:56;1.38;;;0.20;;
73382;SDS011;61600;48.126;11.542;2023-04-24T07:13:23;1.35;;;0.57;;
73382;SDS011;61600;48.126;11.542;2023-04-24T07:15:49;2.78;;;0.32;;
73382;SDS011;61600;48.126;11.542;2023-04-24T07:18:16;1.25;;;0.38;;
73382;SDS011;61600;48.126;11.542;2023-04-24T07:20:42;0.55;;;0.30;;
73382;SDS011;61600;48.126;11.542;2023-04-24T07:23:08;0.45;;;0.30;;
73382;SDS011;61600;48.126;11.542;2023-04-24T07:25:34;1.10;;;0.40;;
73382;SDS011;61600;48.126;11.542;2023-04-24T07:28:00;0.65;;;0.40;;
73382;SDS011;61600;48.126;11.542;2023-04-24T07:30:25;2.40;;;0.50;;
73382;SDS011;61600;48.126;11.542;2023-04-24T07:32:51;1.77;;;0.95;;
73382;SDS011;61600;48.126;11.542;2023-04-24T07:35:17;0.73;;;0.50;;
73382;SDS011;61600;48.126;11.542;2023-04-24T07:37:43;0.57;;;0.40;;
73382;SDS011;61600;48.126;11.542;2023-04-24T07:40:13;0.32;;;0.30;;
73382;SDS011;61600;48.126;11.542;2023-04-24T07:42:40;0.47;;;0.30;;
73382;SDS011;61600;48.126;11.542;2023-04-24T07:45:06;1.55;;;0.40;;
73382;SDS011;61600;48.126;11.542;2023-04-24T07:47:32;0.90;;;0.40;;
73382;SDS011;61600;48.126;11.542;2023-04-24T07:50:00;1.15;;;0.30;;
73382;SDS011;61600;48.126;11.542;2023-04-24T07:52:26;0.47;;;0.40;;
73382;SDS011;61600;48.126;11.542;2023-04-24T07:54:51;1.15;;;0.32;;
73382;SDS011;61600;48.126;11.542;2023-04-24T07:57:24;0.88;;;0.30;;
73382;SDS011;61600;48.126;11.542;2023-04-24T07:59:50;2.75;;;0.50;;
73382;SDS011;61600;48.126;11.542;2023-04-24T08:02:16;0.75;;;0.30;;
73382;SDS011;61600;48.126;11.542;2023-04-24T08:04:42;1.67;;;0.80;;
73382;SDS011;61600;48.126;11.542;2023-04-24T08:07:08;2.75;;;0.70;;
73382;SDS011;61600;48.126;11.542;2023-04-24T08:09:34;0.57;;;0.38;;
73382;SDS011;61600;48.126;11.542;2023-04-24T08:12:00;1.02;;;0.40;;
73382;SDS011;61600;48.126;11.542;2023-04-24T08:14:26;3.33;;;0.77;;
73382;SDS011;61600;48.126;11.542;2023-04-24T08:16:54;0.40;;;0.25;;
73382;SDS011;61600;48.126;11.542;2023-04-24T08:19:21;1.13;;;0.52;;
73382;SDS011;61600;48.126;11.542;2023-04-24T08:21:47;1.05;;;0.40;;
73382;SDS011;61600;48.126;11.542;2023-04-24T08:24:13;0.95;;;0.40;;
73382;SDS011;61600;48.126;11.542;2023-04-24T08:26:39;0.35;;;0.20;;
73382;SDS011;61600;48.126;11.542;2023-04-24T08:29:05;2.17;;;0.55;;
73382;SDS011;61600;48.126;11.542;2023-04-24T08:31:33;3.30;;;1.10;;
73382;SDS011;61600;48.126;11.542;2023-04-24T08:34:00;0.82;;;0.50;;
73382;SDS011;61600;48.126;11.542;2023-04-24T08:36:26;0.57;;;0.35;;
73382;SDS011;61600;48.126;11.542;2023-04-24T08:38:52;2.80;;;0.70;;
73382;SDS011;61600;48.126;11.542;2023-04-24T08:41:18;2.42;;;0.50;;
73382;SDS011;61600;48.126;11.542;2023-04-24T08:43:47;0.75;;;0.50;;
73382;SDS011;61600;48.126;11.542;2023-04-24T08:46:13;1.05;;;0.60;;
73382;SDS011;61600;48.126;11.542;2023-04-24T08:48:41;0.63;;;0.50;;
73382;SDS011;61600;48.126;11.542;2023-04-24T08:51:07;0.77;;;0.55;;
73382;SDS011;61600;48.126;11.542;2023-04-24T08:53:34;1.30;;;0.63;;
73382;SDS011;61600;48.126;11.542;2023-04-24T08:56:01;1.92;;;0.73;;
73382;SDS011;61600;48.126;11.542;2023-04-24T08:58:28;1.88;;;0.90;;
73382;SDS011;61600;48.126;11.542;2023-04-24T09:00:54;1.90;;;0.82;;
73382;SDS011;61600;48.126;11.542;2023-04-24T09:03:21;1.90;;;0.98;;
73382;SDS011;61600;48.126;11.542;2023-04-24T09:05:47;1.60;;;0.90;;
73382;SDS011;61600;48.126;11.542;2023-04-24T09:08:18;1.95;;;0.65;;
73382;SDS011;61600;48.126;11.542;2023-04-24T09:10:45;1.27;;;0.90;;
73382;SDS011;61600;48.126;11.542;2023-04-24T09:13:11;4.28;;;0.85;;
73382;SDS011;61600;48.126;11.542;2023-04-24T09:15:38;1.02;;;0.70;;
73382;SDS011;61600;48.126;11.542;2023-04-24T09:18:05;1.50;;;0.60;;
73382;SDS011;61600;48.126;11.542;2023-04-24T09:20:31;2.33;;;0.95;;
73382;SDS011;61600;48.126;11.542;2023-04-24T09:22:58;2.28;;;1.00;;
73382;SDS011;61600;48.126;11.542;2023-04-24T09:25:33;2.25;;;1.13;;
73382;SDS011;61600;48.126;11.542;2023-04-24T09:28:03;3.67;;;1.10;;
73382;SDS011;61600;48.126;11.542;2023-04-24T09:30:35;2.00;;;0.90;;
73382;SDS011;61600;48.126;11.542;2023-04-24T09:33:10;1.33;;;0.85;;
73382;SDS011;61600;48.126;11.542;2023-04-24T09:35:50;1.70;;;0.70;;
73382;SDS011;61600;48.126;11.542;2023-04-24T09:38:17;1.27;;;0.70;;
73382;SDS011;61600;48.126;11.542;2023-04-24T09:40:43;0.52;;;0.52;;
73382;SDS011;61600;48.126;11.542;2023-04-24T09:43:12;2.90;;;0.80;;
73382;SDS011;61600;48.126;11.542;2023-04-24T09:45:38;1.30;;;0.75;;
73382;SDS011;61600;48.126;11.542;2023-04-24T09:48:05;1.52;;;1.00;;
73382;SDS011;61600;48.126;11.542;2023-04-24T09:50:35;1.90;;;0.77;;
73382;SDS011;61600;48.126;11.542;2023-04-24T09:53:01;1.30;;;0.70;;
73382;SDS011;61600;48.126;11.542;2023-04-24T09:55:29;1.90;;;0.90;;
73382;SDS011;61600;48.126;11.542;2023-04-24T09:57:56;1.48;;;0.88;;
73382;SDS011;61600;48.126;11.542;2023-04-24T10:00:24;2.40;;;0.85;;
73382;SDS011;61600;48.126;11.542;2023-04-24T10:03:04;2.50;;;0.90;;
73382;SDS011;61600;48.126;11.542;2023-04-24T10:05:34;2.03;;;0.82;;
73382;SDS011;61600;48.126;11.542;2023-04-24T10:08:06;2.90;;;0.90;;
73382;SDS011;61600;48.126;11.542;2023-04-24T10:10:38;2.60;;;0.90;;
73382;SDS011;61600;48.126;11.542;2023-04-24T10:13:07;1.80;;;0.85;;
73382;SDS011;61600;48.126;11.542;2023-04-24T10:15:34;1.00;;;0.70;;
73382;SDS011;61600;48.126;11.542;2023-04-24T10:18:00;1.38;;;0.80;;
73382;SDS011;61600;48.126;11.542;2023-04-24T10:20:28;2.97;;;1.20;;
73382;SDS011;61600;48.126;11.542;2023-04-24T10:22:56;4.50;;;1.33;;
73382;SDS011;61600;48.126;11.542;2023-04-24T10:25:24;1.88;;;1.00;;
73382;SDS011;61600;48.126;11.542;2023-04-24T10:27:52;2.78;;;0.93;;
73382;SDS011;61600;48.126;11.542;2023-04-24T10:30:19;2.08;;;1.20;;
73382;SDS011;61600;48.126;11.542;2023-04-24T10:32:45;1.25;;;0.90;;
73382;SDS011;61600;48.126;11.542;2023-04-24T10:35:12;2.28;;;1.10;;
73382;SDS011;61600;48.126;11.542;2023-04-24T10:37:49;3.65;;;1.00;;
73382;SDS011;61600;48.126;11.542;2023-04-24T10:40:18;2.03;;;0.70;;
73382;SDS011;61600;48.126;11.542;2023-04-24T10:42:51;2.80;;;0.90;;
73382;SDS011;61600;48.126;11.542;2023-04-24T10:45:19;2.72;;;1.05;;
73382;SDS011;61600;48.126;11.542;2023-04-24T10:48:04;2.33;;;1.20;;
73382;SDS011;61600;48.126;11.542;2023-04-24T10:50:52;5.65;;;0.95;;
73382;SDS011;61600;48.126;11.542;2023-04-24T10:53:22;1.75;;;0.73;;
73382;SDS011;61600;48.126;11.542;2023-04-24T10:58:23;3.08;;;0.90;;
73382;SDS011;61600;48.126;11.542;2023-04-24T11:00:56;0.80;;;0.60;;
73382;SDS011;61600;48.126;11.542;2023-04-24T11:03:30;1.45;;;0.70;;
73382;SDS011;61600;48.126;11.542;2023-04-24T11:08:39;0.95;;;0.60;;
73382;SDS011;61600;48.126;11.542;2023-04-24T11:11:13;3.58;;;0.60;;
73382;SDS011;61600;48.126;11.542;2023-04-24T11:24:21;1.30;;;0.90;;
73382;SDS011;61600;48.126;11.542;2023-04-24T11:26:56;2.13;;;1.10;;
73382;SDS011;61600;48.126;11.542;2023-04-24T11:29:22;3.42;;;1.10;;
73382;SDS011;61600;48.126;11.542;2023-04-24T11:32:16;1.85;;;1.00;;
73382;SDS011;61600;48.126;11.542;2023-04-24T11:34:45;2.90;;;0.82;;
73382;SDS011;61600;48.126;11.542;2023-04-24T11:37:12;2.70;;;1.10;;
73382;SDS011;61600;48.126;11.542;2023-04-24T11:39:38;4.38;;;1.02;;
73382;SDS011;61600;48.126;11.542;2023-04-24T11:42:04;2.63;;;1.20;;
73382;SDS011;61600;48.126;11.542;2023-04-24T11:44:33;1.95;;;1.13;;
73382;SDS011;61600;48.126;11.542;2023-04-24T11:47:00;4.40;;;1.13;;
73382;SDS011;61600;48.126;11.542;2023-04-24T11:49:26;1.55;;;1.15;;
73382;SDS011;61600;48.126;11.542;2023-04-24T11:51:55;3.83;;;1.10;;
73382;SDS011;61600;48.126;11.542;2023-04-24T11:54:21;2.08;;;1.13;;
73382;SDS011;61600;48.126;11.542;2023-04-24T11:56:49;3.03;;;1.00;;
73382;SDS011;61600;48.126;11.542;2023-04-24T11:59:15;2.10;;;1.00;;
73382;SDS011;61600;48.126;11.542;2023-04-24T12:01:44;2.75;;;0.80;;
73382;SDS011;61600;48.126;11.542;2023-04-24T12:04:11;2.65;;;1.10;;
73382;SDS011;61600;48.126;11.542;2023-04-24T12:06:37;1.40;;;0.90;;
73382;SDS011;61600;48.126;11.542;2023-04-24T12:09:03;2.90;;;0.85;;
73382;SDS011;61600;48.126;11.542;2023-04-24T12:11:29;0.93;;;0.70;;
73382;SDS011;61600;48.126;11.542;2023-04-24T12:13:55;4.03;;;1.13;;
73382;SDS011;61600;48.126;11.542;2023-04-24T12:16:22;1.35;;;0.75;;
73382;SDS011;61600;48.126;11.542;2023-04-24T12:18:50;1.33;;;0.90;;
73382;SDS011;61600;48.126;11.542;2023-04-24T12:21:17;1.83;;;0.95;;
73382;SDS011;61600;48.126;11.542;2023-04-24T12:23:46;0.77;;;0.50;;
73382;SDS011;61600;48.126;11.542;2023-04-24T12:26:17;0.77;;;0.60;;
73382;SDS011;61600;48.126;11.542;2023-04-24T12:31:13;1.75;;;0.95;;
73382;SDS011;61600;48.126;11.542;2023-04-24T12:33:39;4.72;;;1.30;;
73382;SDS011;61600;48.126;11.542;2023-04-24T12:36:06;2.25;;;1.40;;
73382;SDS011;61600;48.126;11.542;2023-04-24T12:38:32;2.17;;;1.30;;
73382;SDS011;61600;48.126;11.542;2023-04-24T12:41:06;2.03;;;0.80;;
73382;SDS011;61600;48.126;11.542;2023-04-24T12:43:37;2.47;;;1.00;;
73382;SDS011;61600;48.126;11.542;2023-04-24T12:46:03;1.80;;;0.75;;
73382;SDS011;61600;48.126;11.542;2023-04-24T12:48:30;2.72;;;0.77;;
73382;SDS011;61600;48.126;11.542;2023-04-24T12:50:57;1.92;;;1.13;;
73382;SDS011;61600;48.126;11.542;2023-04-24T12:53:26;2.67;;;1.02;;
73382;SDS011;61600;48.126;11.542;2023-04-24T12:55:54;1.30;;;0.70;;
73382;SDS011;61600;48.126;11.542;2023-04-24T12:58:21;1.00;;;0.60;;
73382;SDS011;61600;48.126;11.542;2023-04-24T13:00:47;2.30;;;1.05;;
73382;SDS011;61600;48.126;11.542;2023-04-24T13:03:13;2.38;;;1.13;;
73382;SDS011;61600;48.126;11.542;2023-04-24T13:05:39;1.92;;;1.00;;
73382;SDS011;61600;48.126;11.542;2023-04-24T13:08:06;2.53;;;1.02;;
73382;SDS011;61600;48.126;11.542;2023-04-24T13:10:32;1.35;;;0.60;;
73382;SDS011;61600;48.126;11.542;2023-04-24T13:12:58;2.08;;;0.75;;
73382;SDS011;61600;48.126;11.542;2023-04-24T13:15:24;3.90;;;0.95;;
73382;SDS011;61600;48.126;11.542;2023-04-24T13:17:50;2.70;;;1.10;;
73382;SDS011;61600;48.126;11.542;2023-04-24T13:20:18;1.65;;;1.02;;
73382;SDS011;61600;48.126;11.542;2023-04-24T13:22:44;3.63;;;0.95;;
73382;SDS011;61600;48.126;11.542;2023-04-24T13:25:10;3.03;;;1.05;;
73382;SDS011;61600;48.126;11.542;2023-04-24T13:27:38;1.52;;;0.95;;
73382;SDS011;61600;48.126;11.542;2023-04-24T13:30:05;2.15;;;1.23;;
73382;SDS011;61600;48.126;11.542;2023-04-24T13:32:31;1.30;;;0.80;;
73382;SDS011;61600;48.126;11.542;2023-04-24T13:34:58;2.85;;;0.88;;
73382;SDS011;61600;48.126;11.542;2023-04-24T13:37:24;3.88;;;1.10;;
73382;SDS011;61600;48.126;11.542;2023-04-24T13:39:50;2.28;;;1.10;;
73382;SDS011;61600;48.126;11.542;2023-04-24T13:42:16;2.35;;;0.80;;
73382;SDS011;61600;48.126;11.542;2023-04-24T13:44:42;1.70;;;1.00;;
73382;SDS011;61600;48.126;11.542;2023-04-24T13:47:08;4.18;;;1.00;;
73382;SDS011;61600;48.126;11.542;2023-04-24T13:49:36;1.92;;;1.00;;
73382;SDS011;61600;48.126;11.542;2023-04-24T13:52:02;2.08;;;1.17;;
73382;SDS011;61600;48.126;11.542;2023-04-24T13:54:28;1.73;;;0.90;;
73382;SDS011;61600;48.126;11.542;2023-04-24T13:56:55;3.35;;;0.95;;
73382;SDS011;61600;48.126;11.542;2023-04-24T13:59:23;2.88;;;1.27;;
73382;SDS011;61600;48.126;11.542;2023-04-24T14:01:49;2.58;;;0.93;;
73382;SDS011;61600;48.126;11.542;2023-04-24T14:04:15;2.42;;;1.20;;
73382;SDS011;61600;48.126;11.542;2023-04-24T14:06:41;2.22;;;1.10;;
73382;SDS011;61600;48.126;11.542;2023-04-24T14:09:07;1.65;;;0.95;;
73382;SDS011;61600;48.126;11.542;2023-04-24T14:11:33;1.70;;;1.00;;
73382;SDS011;61600;48.126;11.542;2023-04-24T14:14:00;1.23;;;0.80;;
73382;SDS011;61600;48.126;11.542;2023-04-24T14:16:26;1.45;;;1.00;;
73382;SDS011;61600;48.126;11.542;2023-04-24T14:18:52;2.70;;;1.15;;
73382;SDS011;61600;48.126;11.542;2023-04-24T14:21:17;2.30;;;1.08;;
73382;SDS011;61600;48.126;11.542;2023-04-24T14:23:43;1.27;;;0.60;;
73382;SDS011;61600;48.126;11.542;2023-04-24T14:26:09;2.60;;;0.98;;
73382;SDS011;61600;48.126;11.542;2023-04-24T14:28:35;2.83;;;1.02;;
73382;SDS011;61600;48.126;11.542;2023-04-24T14:31:01;2.25;;;1.30;;
73382;SDS011;61600;48.126;11.542;2023-04-24T14:33:28;4.18;;;1.20;;
73382;SDS011;61600;48.126;11.542;2023-04-24T14:35:54;1.80;;;1.10;;
73382;SDS011;61600;48.126;11.542;2023-04-24T14:38:20;2.75;;;1.35;;
73382;SDS011;61600;48.126;11.542;2023-04-24T14:40:47;2.40;;;1.00;;
73382;SDS011;61600;48.126;11.542;2023-04-24T14:43:13;3.85;;;1.10;;
73382;SDS011;61600;48.126;11.542;2023-04-24T14:45:39;1.40;;;1.00;;
73382;SDS011;61600;48.126;11.542;2023-04-24T14:48:07;2.45;;;1.00;;
73382;SDS011;61600;48.126;11.542;2023-04-24T14:50:33;4.00;;;1.77;;
73382;SDS011;61600;48.126;11.542;2023-04-24T14:52:59;2.70;;;1.13;;
73382;SDS011;61600;48.126;11.542;2023-04-24T14:55:27;1.88;;;1.20;;